createdAt,value
2022-12-06T00:00:32.105Z,95673
2022-12-06T00:01:41.907Z,95672
2022-12-06T00:02:51.491Z,95669
2022-12-06T00:04:01.131Z,95670
2022-12-06T00:05:09.816Z,95675
2022-12-06T00:06:18.452Z,95672
2022-12-06T00:07:28.118Z,95674
2022-12-06T00:08:35.762Z,95673
2022-12-06T00:09:45.437Z,95676
2022-12-06T00:10:54.087Z,95678
2022-12-06T00:12:03.748Z,95678
2022-12-06T00:13:13.461Z,95685
2022-12-06T00:14:22.138Z,95681
2022-12-06T00:15:30.788Z,95680
2022-12-06T00:16:40.508Z,95681
2022-12-06T00:17:48.144Z,95683
2022-12-06T00:18:56.782Z,95680
2022-12-06T00:20:05.474Z,95682
2022-12-06T00:21:14.171Z,95684
2022-12-06T00:22:23.885Z,95681
2022-12-06T00:23:31.849Z,95683
2022-12-06T00:24:40.216Z,95684
2022-12-06T00:25:49.888Z,95683
2022-12-06T00:26:58.563Z,95681
2022-12-06T00:28:08.229Z,95684
2022-12-06T00:29:17.897Z,95683
2022-12-06T00:30:26.547Z,95686
2022-12-06T00:31:36.437Z,95686
2022-12-06T00:32:44.871Z,95688
2022-12-06T00:33:53.537Z,95684
2022-12-06T00:35:03.198Z,95685
2022-12-06T00:36:10.859Z,95684
2022-12-06T00:37:19.576Z,95682
2022-12-06T00:38:29.227Z,95681
2022-12-06T00:39:37.868Z,95675
2022-12-06T00:40:47.545Z,95677
2022-12-06T00:41:56.204Z,95672
2022-12-06T00:43:04.873Z,95674
2022-12-06T00:44:14.551Z,95668
2022-12-06T00:45:22.219Z,95672
2022-12-06T00:46:30.936Z,95672
2022-12-06T00:47:40.531Z,95672
2022-12-06T00:48:50.209Z,95676
2022-12-06T00:50:00.067Z,95674
2022-12-06T00:51:07.544Z,95679
2022-12-06T00:52:16.186Z,95677
2022-12-06T00:53:25.871Z,95684
2022-12-06T00:54:34.524Z,95677
2022-12-06T00:55:44.187Z,95677
2022-12-06T00:56:52.844Z,95681
2022-12-06T00:58:01.511Z,95673
2022-12-06T00:59:11.254Z,95674
2022-12-06T01:00:19.906Z,95670
2022-12-06T01:01:28.659Z,95672
2022-12-06T01:02:38.240Z,95670
2022-12-06T01:03:45.967Z,95668
2022-12-06T01:04:54.541Z,95668
2022-12-06T01:06:03.240Z,95668
2022-12-06T01:07:12.889Z,95668
2022-12-06T01:08:22.621Z,95672
2022-12-06T01:09:31.248Z,95666
2022-12-06T01:10:39.915Z,95669
2022-12-06T01:11:49.594Z,95664
2022-12-06T01:12:57.260Z,95664
2022-12-06T01:14:05.923Z,95662
2022-12-06T01:15:15.582Z,95662
2022-12-06T01:16:25.276Z,95663
2022-12-06T01:17:35.046Z,95673
2022-12-06T01:18:44.709Z,95665
2022-12-06T01:19:53.355Z,95664
2022-12-06T01:21:02.064Z,95659
2022-12-06T01:22:10.857Z,95658
2022-12-06T01:23:19.565Z,95652
2022-12-06T01:24:28.262Z,95656
2022-12-06T01:25:36.917Z,95656
2022-12-06T01:26:46.566Z,95662
2022-12-06T01:27:54.232Z,95652
2022-12-06T01:29:02.917Z,95655
2022-12-06T01:30:12.582Z,95656
2022-12-06T01:31:20.365Z,95657
2022-12-06T01:32:29.890Z,95654
2022-12-06T01:33:38.563Z,95652
2022-12-06T01:34:48.249Z,95650
2022-12-06T01:35:57.912Z,95645
2022-12-06T01:37:06.574Z,95644
2022-12-06T01:38:16.229Z,95647
2022-12-06T01:39:25.903Z,95646
2022-12-06T01:40:33.571Z,95645
2022-12-06T01:41:43.263Z,95644
2022-12-06T01:42:51.887Z,95635
2022-12-06T01:44:00.539Z,95639
2022-12-06T01:45:10.233Z,95638
2022-12-06T01:46:18.946Z,95641
2022-12-06T01:47:27.562Z,95636
2022-12-06T01:48:37.224Z,95638
2022-12-06T01:49:44.878Z,95641
2022-12-06T01:50:53.566Z,95636
2022-12-06T01:52:02.247Z,95642
2022-12-06T01:53:10.896Z,95636
2022-12-06T01:54:21.543Z,95640
2022-12-06T01:55:31.185Z,95638
2022-12-06T01:56:39.819Z,95637
2022-12-06T01:57:49.534Z,95641
2022-12-06T01:58:58.160Z,95638
2022-12-06T02:00:07.815Z,95640
2022-12-06T02:01:15.519Z,95636
2022-12-06T02:02:25.178Z,95632
2022-12-06T02:03:34.814Z,95633
2022-12-06T02:04:43.477Z,95632
2022-12-06T02:05:53.146Z,95633
2022-12-06T02:07:00.801Z,95620
2022-12-06T02:08:10.485Z,95622
2022-12-06T02:09:20.148Z,95620
2022-12-06T02:10:28.804Z,95620
2022-12-06T02:11:37.479Z,95622
2022-12-06T02:12:47.144Z,95619
2022-12-06T02:13:55.827Z,95620
2022-12-06T02:15:05.484Z,95621
2022-12-06T02:16:14.176Z,95622
2022-12-06T02:17:22.787Z,95624
2022-12-06T02:18:32.458Z,95620
2022-12-06T02:19:41.118Z,95621
2022-12-06T02:20:49.815Z,95625
2022-12-06T02:21:59.459Z,95624
2022-12-06T02:23:09.136Z,95628
2022-12-06T02:24:18.810Z,95626
2022-12-06T02:25:30.451Z,95622
2022-12-06T02:26:36.175Z,95618
2022-12-06T02:27:45.836Z,95618
2022-12-06T02:28:54.507Z,95618
2022-12-06T02:30:03.341Z,95614
2022-12-06T02:31:12.897Z,95611
2022-12-06T02:32:21.516Z,95610
2022-12-06T02:33:31.186Z,95605
2022-12-06T02:34:40.846Z,95605
2022-12-06T02:35:50.494Z,95607
2022-12-06T02:37:00.186Z,95602
2022-12-06T02:38:12.968Z,95608
2022-12-06T02:39:18.526Z,95605
2022-12-06T02:40:27.187Z,95605
2022-12-06T02:41:35.840Z,95609
2022-12-06T02:42:45.525Z,95599
2022-12-06T02:43:53.192Z,95594
2022-12-06T02:45:02.848Z,95593
2022-12-06T02:46:11.599Z,95597
2022-12-06T02:47:19.184Z,95603
2022-12-06T02:48:28.872Z,95599
2022-12-06T02:49:37.578Z,95603
2022-12-06T02:50:47.250Z,95604
2022-12-06T02:51:56.908Z,95606
2022-12-06T02:53:05.576Z,95599
2022-12-06T02:54:14.244Z,95598
2022-12-06T02:55:23.956Z,95591
2022-12-06T02:56:31.607Z,95595
2022-12-06T02:57:40.278Z,95596
2022-12-06T02:58:48.938Z,95599
2022-12-06T02:59:58.949Z,95599
2022-12-06T03:01:08.355Z,95596
2022-12-06T03:02:15.994Z,95595
2022-12-06T03:03:25.583Z,95597
2022-12-06T03:04:35.235Z,95596
2022-12-06T03:05:43.913Z,95597
2022-12-06T03:06:53.584Z,95592
2022-12-06T03:08:02.310Z,95595
2022-12-06T03:09:10.882Z,95591
2022-12-06T03:10:20.546Z,95592
2022-12-06T03:11:29.198Z,95592
2022-12-06T03:12:38.865Z,95594
2022-12-06T03:13:48.520Z,95589
2022-12-06T03:14:57.190Z,95589
2022-12-06T03:16:05.890Z,95594
2022-12-06T03:17:16.505Z,95592
2022-12-06T03:18:25.219Z,95595
2022-12-06T03:19:33.840Z,95594
2022-12-06T03:20:42.493Z,95592
2022-12-06T03:21:51.148Z,95589
2022-12-06T03:23:00.811Z,95589
2022-12-06T03:24:08.489Z,95585
2022-12-06T03:25:17.140Z,95580
2022-12-06T03:26:25.807Z,95581
2022-12-06T03:27:35.464Z,95581
2022-12-06T03:28:45.134Z,95576
2022-12-06T03:29:52.819Z,95583
2022-12-06T03:31:02.566Z,95578
2022-12-06T03:32:12.136Z,95575
2022-12-06T03:33:20.804Z,95578
2022-12-06T03:34:29.470Z,95579
2022-12-06T03:35:39.133Z,95584
2022-12-06T03:36:47.791Z,95580
2022-12-06T03:37:57.451Z,95580
2022-12-06T03:39:06.088Z,95580
2022-12-06T03:40:14.756Z,95583
2022-12-06T03:41:24.427Z,95582
2022-12-06T03:42:33.104Z,95583
2022-12-06T03:43:41.765Z,95585
2022-12-06T03:44:51.434Z,95586
2022-12-06T03:46:00.215Z,95582
2022-12-06T03:47:09.817Z,95585
2022-12-06T03:48:19.396Z,95583
2022-12-06T03:49:28.042Z,95587
2022-12-06T03:50:37.789Z,95582
2022-12-06T03:51:45.490Z,95586
2022-12-06T03:52:55.176Z,95580
2022-12-06T03:54:03.836Z,95589
2022-12-06T03:55:13.474Z,95586
2022-12-06T03:56:22.142Z,95586
2022-12-06T03:57:30.791Z,95586
2022-12-06T03:58:40.469Z,95587
2022-12-06T03:59:49.142Z,95589
2022-12-06T04:00:58.779Z,95585
2022-12-06T04:02:08.458Z,95589
2022-12-06T04:03:16.108Z,95589
2022-12-06T04:04:24.770Z,95587
2022-12-06T04:05:33.435Z,95583
2022-12-06T04:06:42.103Z,95585
2022-12-06T04:07:51.781Z,95585
2022-12-06T04:09:00.387Z,95585
2022-12-06T04:10:10.057Z,95584
2022-12-06T04:11:19.737Z,95583
2022-12-06T04:12:27.419Z,95584
2022-12-06T04:13:36.074Z,95582
2022-12-06T04:14:44.739Z,95582
2022-12-06T04:15:53.426Z,95583
2022-12-06T04:17:02.060Z,95580
2022-12-06T04:18:11.754Z,95582
2022-12-06T04:19:20.420Z,95578
2022-12-06T04:20:30.074Z,95575
2022-12-06T04:21:38.748Z,95578
2022-12-06T04:22:48.433Z,95575
2022-12-06T04:23:57.067Z,95568
2022-12-06T04:25:07.722Z,95563
2022-12-06T04:26:16.408Z,95570
2022-12-06T04:27:25.072Z,95568
2022-12-06T04:28:34.737Z,95565
2022-12-06T04:29:43.385Z,95566
2022-12-06T04:30:52.033Z,95568
2022-12-06T04:32:01.772Z,95565
2022-12-06T04:33:10.420Z,95566
2022-12-06T04:34:20.102Z,95567
2022-12-06T04:35:29.864Z,95568
2022-12-06T04:36:39.603Z,95575
2022-12-06T04:37:49.287Z,95571
2022-12-06T04:38:58.000Z,95574
2022-12-06T04:40:06.629Z,95569
2022-12-06T04:41:16.387Z,95569
2022-12-06T04:42:25.035Z,95568
2022-12-06T04:43:34.682Z,95569
2022-12-06T04:44:43.396Z,95564
2022-12-06T04:45:52.049Z,95564
2022-12-06T04:47:01.813Z,95563
2022-12-06T04:48:09.380Z,95560
2022-12-06T04:49:18.039Z,95559
2022-12-06T04:50:27.720Z,95560
2022-12-06T04:51:36.369Z,95556
2022-12-06T04:52:46.050Z,95556
2022-12-06T04:53:54.726Z,95555
2022-12-06T04:55:03.392Z,95555
2022-12-06T04:56:12.053Z,95556
2022-12-06T04:57:19.699Z,95555
2022-12-06T04:58:28.354Z,95555
2022-12-06T04:59:38.041Z,95559
2022-12-06T05:00:45.704Z,95560
2022-12-06T05:01:54.351Z,95560
2022-12-06T05:03:03.010Z,95555
2022-12-06T05:04:11.714Z,95558
2022-12-06T05:05:21.329Z,95553
2022-12-06T05:06:29.975Z,95555
2022-12-06T05:07:38.673Z,95555
2022-12-06T05:08:48.323Z,95555
2022-12-06T05:09:55.980Z,95558
2022-12-06T05:11:04.678Z,95560
2022-12-06T05:12:14.320Z,95557
2022-12-06T05:13:23.008Z,95561
2022-12-06T05:14:32.701Z,95558
2022-12-06T05:15:42.362Z,95556
2022-12-06T05:16:51.125Z,95560
2022-12-06T05:18:00.814Z,95557
2022-12-06T05:19:08.484Z,95564
2022-12-06T05:20:17.181Z,95559
2022-12-06T05:21:26.860Z,95563
2022-12-06T05:22:35.497Z,95559
2022-12-06T05:23:45.252Z,95557
2022-12-06T05:24:53.960Z,95559
2022-12-06T05:26:02.647Z,95560
2022-12-06T05:27:12.346Z,95558
2022-12-06T05:28:19.977Z,95556
2022-12-06T05:29:29.655Z,95557
2022-12-06T05:30:39.390Z,95555
2022-12-06T05:31:48.210Z,95560
2022-12-06T05:32:57.713Z,95559
2022-12-06T05:34:04.361Z,95566
2022-12-06T05:35:13.028Z,95564
2022-12-06T05:36:22.725Z,95561
2022-12-06T05:37:30.377Z,95562
2022-12-06T05:38:39.047Z,95564
2022-12-06T05:39:48.714Z,95566
2022-12-06T05:40:58.515Z,95571
2022-12-06T05:42:08.220Z,95566
2022-12-06T05:43:17.937Z,95565
2022-12-06T05:44:26.659Z,95563
2022-12-06T05:45:36.402Z,95564
2022-12-06T05:46:43.991Z,95566
2022-12-06T05:47:52.726Z,95567
2022-12-06T05:49:01.387Z,95572
2022-12-06T05:50:11.053Z,95572
2022-12-06T05:51:20.737Z,95568
2022-12-06T05:52:29.384Z,95573
2022-12-06T05:53:40.081Z,95570
2022-12-06T05:54:49.030Z,95570
2022-12-06T05:55:59.575Z,95566
2022-12-06T05:57:10.224Z,95568
2022-12-06T05:58:18.881Z,95568
2022-12-06T05:59:27.614Z,95570
2022-12-06T06:00:37.232Z,95570
2022-12-06T06:01:46.983Z,95564
2022-12-06T06:02:56.749Z,95565
2022-12-06T06:04:05.256Z,95563
2022-12-06T06:05:14.915Z,95564
2022-12-06T06:06:24.579Z,95564
2022-12-06T06:07:33.289Z,95566
2022-12-06T06:08:40.890Z,95564
2022-12-06T06:09:49.528Z,95566
2022-12-06T06:10:58.219Z,95563
2022-12-06T06:12:12.185Z,95567
2022-12-06T06:13:17.504Z,95565
2022-12-06T06:14:26.189Z,95562
2022-12-06T06:15:35.889Z,95560
2022-12-06T06:16:44.667Z,95562
2022-12-06T06:17:54.308Z,95564
2022-12-06T06:19:03.973Z,95557
2022-12-06T06:20:12.635Z,95559
2022-12-06T06:21:22.320Z,95557
2022-12-06T06:22:30.016Z,95557
2022-12-06T06:23:38.672Z,95556
2022-12-06T06:24:48.336Z,95558
2022-12-06T06:25:55.986Z,95561
2022-12-06T06:27:05.652Z,95562
2022-12-06T06:28:14.356Z,95570
2022-12-06T06:29:24.010Z,95569
2022-12-06T06:30:32.673Z,95572
2022-12-06T06:31:42.522Z,95567
2022-12-06T06:32:51.995Z,95566
2022-12-06T06:34:01.734Z,95561
2022-12-06T06:35:10.393Z,95567
2022-12-06T06:36:19.057Z,95563
2022-12-06T06:37:29.301Z,95569
2022-12-06T06:38:38.976Z,95570
2022-12-06T06:39:48.685Z,95570
2022-12-06T06:40:56.345Z,95574
2022-12-06T06:42:05.009Z,95574
2022-12-06T06:43:14.695Z,95571
2022-12-06T06:44:24.350Z,95579
2022-12-06T06:45:33.023Z,95573
2022-12-06T06:46:41.696Z,95572
2022-12-06T06:47:50.386Z,95566
2022-12-06T06:49:00.040Z,95571
2022-12-06T06:50:08.707Z,95572
2022-12-06T06:51:18.444Z,95576
2022-12-06T06:52:28.109Z,95569
2022-12-06T06:53:36.823Z,95570
2022-12-06T06:54:46.496Z,95576
2022-12-06T06:55:55.191Z,95571
2022-12-06T06:57:04.886Z,95572
2022-12-06T06:58:15.538Z,95574
2022-12-06T06:59:23.216Z,95569
2022-12-06T07:00:32.885Z,95570
2022-12-06T07:01:42.614Z,95568
2022-12-06T07:02:51.368Z,95566
2022-12-06T07:03:59.930Z,95566
2022-12-06T07:05:09.585Z,95567
2022-12-06T07:06:18.250Z,95567
2022-12-06T07:07:27.917Z,95566
2022-12-06T07:08:36.692Z,95570
2022-12-06T07:09:45.397Z,95566
2022-12-06T07:10:55.068Z,95564
2022-12-06T07:12:02.743Z,95567
2022-12-06T07:13:11.402Z,95569
2022-12-06T07:14:20.094Z,95571
2022-12-06T07:15:28.770Z,95572
2022-12-06T07:16:38.489Z,95573
2022-12-06T07:17:46.143Z,95573
2022-12-06T07:18:54.793Z,95570
2022-12-06T07:20:05.503Z,95573
2022-12-06T07:21:14.174Z,95571
2022-12-06T07:22:23.961Z,95576
2022-12-06T07:23:31.624Z,95576
2022-12-06T07:24:42.940Z,95574
2022-12-06T07:25:50.954Z,95573
2022-12-06T07:26:58.633Z,95574
2022-12-06T07:28:08.287Z,95574
2022-12-06T07:29:17.974Z,95569
2022-12-06T07:30:27.633Z,95565
2022-12-06T07:31:36.409Z,95567
2022-12-06T07:32:46.052Z,95571
2022-12-06T07:33:55.777Z,95573
2022-12-06T07:35:05.423Z,95569
2022-12-06T07:36:14.422Z,95572
2022-12-06T07:37:22.787Z,95566
2022-12-06T07:38:32.483Z,95570
2022-12-06T07:39:42.186Z,95573
2022-12-06T07:41:07.203Z,95575
2022-12-06T07:42:02.497Z,95574
2022-12-06T07:43:11.184Z,95572
2022-12-06T07:44:21.507Z,95573
2022-12-06T07:45:30.300Z,95579
2022-12-06T07:46:40.007Z,95573
2022-12-06T07:47:49.769Z,95574
2022-12-06T07:48:58.449Z,95569
2022-12-06T07:50:10.513Z,95575
2022-12-06T07:51:18.829Z,95571
2022-12-06T07:52:28.496Z,95575
2022-12-06T07:53:37.188Z,95573
2022-12-06T07:54:45.876Z,95575
2022-12-06T07:55:55.547Z,95571
2022-12-06T07:57:04.220Z,95575
2022-12-06T07:58:12.911Z,95573
2022-12-06T07:59:22.591Z,95572
2022-12-06T08:00:30.253Z,95572
2022-12-06T08:01:38.941Z,95576
2022-12-06T08:02:47.583Z,95572
2022-12-06T08:03:56.306Z,95569
2022-12-06T08:05:05.914Z,95574
2022-12-06T08:06:14.599Z,95573
2022-12-06T08:07:23.319Z,95573
2022-12-06T08:08:33.049Z,95572
2022-12-06T08:09:41.657Z,95572
2022-12-06T08:10:50.351Z,95570
2022-12-06T08:11:58.036Z,95571
2022-12-06T08:13:07.696Z,95572
2022-12-06T08:14:17.404Z,95576
2022-12-06T08:15:25.045Z,95572
2022-12-06T08:16:33.754Z,95578
2022-12-06T08:17:43.409Z,95576
2022-12-06T08:18:51.110Z,95575
2022-12-06T08:20:00.180Z,95579
2022-12-06T08:21:08.461Z,95576
2022-12-06T08:22:17.109Z,95579
2022-12-06T08:23:30.738Z,95575
2022-12-06T08:24:37.450Z,95571
2022-12-06T08:25:47.143Z,95572
2022-12-06T08:26:56.814Z,95574
2022-12-06T08:28:04.458Z,95572
2022-12-06T08:29:13.153Z,95566
2022-12-06T08:30:21.816Z,95565
2022-12-06T08:31:30.549Z,95566
2022-12-06T08:32:40.154Z,95569
2022-12-06T08:33:48.849Z,95566
2022-12-06T08:34:57.519Z,95569
2022-12-06T08:36:07.192Z,95565
2022-12-06T08:37:15.847Z,95567
2022-12-06T08:38:24.580Z,95565
2022-12-06T08:39:33.283Z,95566
2022-12-06T08:40:41.969Z,95566
2022-12-06T08:41:51.654Z,95570
2022-12-06T08:43:00.331Z,95567
2022-12-06T08:44:09.008Z,95564
2022-12-06T08:45:18.706Z,95558
2022-12-06T08:46:27.427Z,95561
2022-12-06T08:47:36.133Z,95564
2022-12-06T08:48:45.795Z,95559
2022-12-06T08:49:54.462Z,95567
2022-12-06T08:51:04.133Z,95569
2022-12-06T08:52:11.786Z,95571
2022-12-06T08:53:20.454Z,95571
2022-12-06T08:54:30.106Z,95574
2022-12-06T08:55:37.795Z,95574
2022-12-06T08:56:46.425Z,95585
2022-12-06T08:57:55.112Z,95580
2022-12-06T08:59:04.782Z,95582
2022-12-06T09:00:14.443Z,95582
2022-12-06T09:01:22.198Z,95584
2022-12-06T09:02:29.728Z,95586
2022-12-06T09:03:39.432Z,95585
2022-12-06T09:04:48.164Z,95590
2022-12-06T09:05:56.767Z,95590
2022-12-06T09:07:10.178Z,95587
2022-12-06T09:08:15.105Z,95591
2022-12-06T09:09:24.759Z,95592
2022-12-06T09:10:32.405Z,95594
2022-12-06T09:11:41.084Z,95593
2022-12-06T09:12:50.752Z,95592
2022-12-06T09:13:58.405Z,95590
2022-12-06T09:15:08.104Z,95593
2022-12-06T09:16:17.915Z,95590
2022-12-06T09:17:26.441Z,95587
2022-12-06T09:18:36.102Z,95587
2022-12-06T09:19:43.750Z,95589
2022-12-06T09:20:52.431Z,95585
2022-12-06T09:22:02.099Z,95590
2022-12-06T09:23:09.749Z,95581
2022-12-06T09:24:18.431Z,95585
2022-12-06T09:25:27.220Z,95589
2022-12-06T09:26:36.898Z,95586
2022-12-06T09:27:46.572Z,95587
2022-12-06T09:28:56.215Z,95587
2022-12-06T09:30:05.881Z,95583
2022-12-06T09:31:15.562Z,95586
2022-12-06T09:32:24.217Z,95588
2022-12-06T09:33:32.866Z,95588
2022-12-06T09:34:41.549Z,95585
2022-12-06T09:35:50.228Z,95590
2022-12-06T09:36:59.892Z,95586
2022-12-06T09:38:07.602Z,95585
2022-12-06T09:39:17.243Z,95584
2022-12-06T09:40:26.914Z,95578
2022-12-06T09:41:34.578Z,95585
2022-12-06T09:42:43.229Z,95575
2022-12-06T09:43:51.980Z,95575
2022-12-06T09:45:00.628Z,95577
2022-12-06T09:46:10.419Z,95575
2022-12-06T09:47:18.953Z,95571
2022-12-06T09:48:28.613Z,95575
2022-12-06T09:49:36.289Z,95575
2022-12-06T09:50:44.937Z,95575
2022-12-06T09:51:54.604Z,95574
2022-12-06T09:53:02.255Z,95570
2022-12-06T09:54:10.899Z,95570
2022-12-06T09:55:20.596Z,95569
2022-12-06T09:56:29.249Z,95563
2022-12-06T09:57:38.923Z,95565
2022-12-06T09:58:46.586Z,95567
2022-12-06T09:59:55.263Z,95561
2022-12-06T10:01:04.933Z,95562
2022-12-06T10:02:12.668Z,95557
2022-12-06T10:03:22.344Z,95556
2022-12-06T10:04:30.907Z,95560
2022-12-06T10:05:39.565Z,95554
2022-12-06T10:06:50.251Z,95551
2022-12-06T10:07:58.009Z,95554
2022-12-06T10:09:07.773Z,95552
2022-12-06T10:10:17.359Z,95546
2022-12-06T10:11:25.015Z,95547
2022-12-06T10:12:33.700Z,95544
2022-12-06T10:13:42.360Z,95538
2022-12-06T10:14:51.010Z,95539
2022-12-06T10:16:00.779Z,95531
2022-12-06T10:17:09.712Z,95531
2022-12-06T10:18:19.013Z,95526
2022-12-06T10:19:28.678Z,95526
2022-12-06T10:20:37.345Z,95522
2022-12-06T10:21:46.003Z,95522
2022-12-06T10:22:55.673Z,95525
2022-12-06T10:24:04.361Z,95522
2022-12-06T10:25:14.021Z,95521
2022-12-06T10:26:22.676Z,95511
2022-12-06T10:27:32.336Z,95511
2022-12-06T10:28:42.987Z,95510
2022-12-06T10:29:52.671Z,95508
2022-12-06T10:31:01.375Z,95505
2022-12-06T10:32:10.015Z,95508
2022-12-06T10:33:18.682Z,95512
2022-12-06T10:34:28.342Z,95517
2022-12-06T10:35:37.014Z,95516
2022-12-06T10:36:45.669Z,95508
2022-12-06T10:37:55.324Z,95509
2022-12-06T10:39:03.978Z,95508
2022-12-06T10:40:13.649Z,95510
2022-12-06T10:41:22.358Z,95508
2022-12-06T10:42:29.999Z,95510
2022-12-06T10:43:39.677Z,95510
2022-12-06T10:44:47.334Z,95508
2022-12-06T10:45:56.998Z,95504
2022-12-06T10:47:07.774Z,95500
2022-12-06T10:48:15.411Z,95496
2022-12-06T10:49:25.043Z,95495
2022-12-06T10:50:32.699Z,95493
2022-12-06T10:51:41.364Z,95492
2022-12-06T10:52:51.044Z,95485
2022-12-06T10:54:00.677Z,95487
2022-12-06T10:55:09.348Z,95490
2022-12-06T10:56:19.013Z,95493
2022-12-06T10:57:28.686Z,95492
2022-12-06T10:58:37.353Z,95506
2022-12-06T10:59:47.015Z,95508
2022-12-06T11:00:56.683Z,95501
2022-12-06T11:02:06.378Z,95494
2022-12-06T11:03:14.027Z,95485
2022-12-06T11:04:22.733Z,95491
2022-12-06T11:05:32.401Z,95504
2022-12-06T11:06:40.051Z,95509
2022-12-06T11:07:49.771Z,95493
2022-12-06T11:08:58.383Z,95487
2022-12-06T11:10:07.058Z,95488
2022-12-06T11:11:16.750Z,95493
2022-12-06T11:12:29.488Z,95492
2022-12-06T11:13:33.052Z,95490
2022-12-06T11:14:42.725Z,95487
2022-12-06T11:15:50.466Z,95478
2022-12-06T11:16:59.095Z,95475
2022-12-06T11:18:07.748Z,95477
2022-12-06T11:19:16.399Z,95484
2022-12-06T11:20:26.082Z,95481
2022-12-06T11:21:35.758Z,95484
2022-12-06T11:22:45.415Z,95479
2022-12-06T11:23:55.077Z,95473
2022-12-06T11:25:03.747Z,95473
2022-12-06T11:26:13.415Z,95471
2022-12-06T11:27:22.101Z,95463
2022-12-06T11:28:30.783Z,95463
2022-12-06T11:29:40.436Z,95468
2022-12-06T11:30:49.084Z,95465
2022-12-06T11:31:57.844Z,95472
2022-12-06T11:33:07.431Z,95470
2022-12-06T11:34:16.129Z,95473
2022-12-06T11:35:24.780Z,95484
2022-12-06T11:36:33.488Z,95484
2022-12-06T11:37:44.477Z,95487
2022-12-06T11:38:51.792Z,95485
2022-12-06T11:40:01.763Z,95482
2022-12-06T11:41:11.183Z,95474
2022-12-06T11:42:21.881Z,95466
2022-12-06T11:43:29.539Z,95471
2022-12-06T11:44:38.287Z,95474
2022-12-06T11:45:48.945Z,95470
2022-12-06T11:46:58.688Z,95468
2022-12-06T11:48:07.341Z,95465
2022-12-06T11:49:16.026Z,95468
2022-12-06T11:50:25.768Z,95463
2022-12-06T11:51:34.435Z,95460
2022-12-06T11:52:44.134Z,95461
2022-12-06T11:53:53.825Z,95456
2022-12-06T11:55:02.877Z,95456
2022-12-06T11:56:11.188Z,95454
2022-12-06T11:57:22.596Z,95454
2022-12-06T11:58:29.547Z,95462
2022-12-06T11:59:39.219Z,95467
2022-12-06T12:00:46.891Z,95476
2022-12-06T12:01:55.624Z,95483
2022-12-06T12:03:05.313Z,95486
2022-12-06T12:04:12.922Z,95485
2022-12-06T12:05:22.594Z,95479
2022-12-06T12:06:31.264Z,95481
2022-12-06T12:07:41.131Z,95484
2022-12-06T12:08:50.804Z,95482
2022-12-06T12:09:59.478Z,95483
2022-12-06T12:11:08.147Z,95478
2022-12-06T12:12:17.833Z,95474
2022-12-06T12:13:26.565Z,95473
2022-12-06T12:14:36.245Z,95472
2022-12-06T12:15:45.902Z,95473
2022-12-06T12:16:55.641Z,95475
2022-12-06T12:18:05.290Z,95477
2022-12-06T12:19:14.100Z,95471
2022-12-06T12:20:23.751Z,95474
2022-12-06T12:21:33.449Z,95472
2022-12-06T12:22:42.097Z,95471
2022-12-06T12:23:51.788Z,95472
2022-12-06T12:25:18.209Z,95469
2022-12-06T12:26:11.117Z,95470
2022-12-06T12:27:24.471Z,95472
2022-12-06T12:28:31.458Z,95473
2022-12-06T12:29:40.115Z,95467
2022-12-06T12:30:49.864Z,95474
2022-12-06T12:31:58.622Z,95474
2022-12-06T12:33:08.230Z,95473
2022-12-06T12:34:16.894Z,95466
2022-12-06T12:35:25.564Z,95472
2022-12-06T12:36:35.289Z,95471
2022-12-06T12:37:43.955Z,95472
2022-12-06T12:38:52.654Z,95470
2022-12-06T12:40:06.136Z,95471
2022-12-06T12:41:12.983Z,95464
2022-12-06T12:42:22.679Z,95463
2022-12-06T12:43:31.339Z,95464
2022-12-06T12:44:40.997Z,95460
2022-12-06T12:45:50.693Z,95461
2022-12-06T12:47:00.304Z,95457
2022-12-06T12:48:09.987Z,95456
2022-12-06T12:49:19.694Z,95455
2022-12-06T12:50:27.416Z,95445
2022-12-06T12:51:37.114Z,95445
2022-12-06T12:52:46.778Z,95445
2022-12-06T12:53:55.484Z,95444
2022-12-06T12:55:05.180Z,95442
2022-12-06T12:56:13.824Z,95441
2022-12-06T12:57:23.500Z,95436
2022-12-06T12:58:36.095Z,95435
2022-12-06T12:59:42.879Z,95434
2022-12-06T13:00:52.639Z,95435
2022-12-06T13:02:01.238Z,95427
2022-12-06T13:03:28.432Z,95430
2022-12-06T13:04:20.514Z,95429
2022-12-06T13:05:36.829Z,95426
2022-12-06T13:06:36.816Z,95427
2022-12-06T13:07:46.499Z,95418
2022-12-06T13:08:55.155Z,95414
2022-12-06T13:10:04.823Z,95417
2022-12-06T13:11:14.601Z,95425
2022-12-06T13:12:23.248Z,95427
2022-12-06T13:13:32.927Z,95430
2022-12-06T13:14:41.583Z,95426
2022-12-06T13:15:50.242Z,95431
2022-12-06T13:17:00.001Z,95430
2022-12-06T13:18:08.639Z,95425
2022-12-06T13:19:18.312Z,95419
2022-12-06T13:20:26.983Z,95414
2022-12-06T13:21:35.640Z,95415
2022-12-06T13:22:45.362Z,95413
2022-12-06T13:23:54.023Z,95414
2022-12-06T13:25:03.697Z,95419
2022-12-06T13:26:13.381Z,95421
2022-12-06T13:27:21.060Z,95416
2022-12-06T13:28:30.821Z,95404
2022-12-06T13:29:40.533Z,95395
2022-12-06T13:30:49.255Z,95397
2022-12-06T13:31:58.886Z,95402
2022-12-06T13:33:06.554Z,95409
2022-12-06T13:34:16.256Z,95408
2022-12-06T13:35:25.916Z,95408
2022-12-06T13:36:35.581Z,95410
2022-12-06T13:37:45.243Z,95410
2022-12-06T13:38:53.916Z,95414
2022-12-06T13:40:02.956Z,95417
2022-12-06T13:41:12.297Z,95412
2022-12-06T13:42:19.956Z,95411
2022-12-06T13:43:30.541Z,95411
2022-12-06T13:44:40.316Z,95413
2022-12-06T13:45:49.007Z,95411
2022-12-06T13:46:58.689Z,95413
2022-12-06T13:48:07.367Z,95416
2022-12-06T13:49:17.032Z,95417
2022-12-06T13:50:25.708Z,95414
2022-12-06T13:51:34.393Z,95412
2022-12-06T13:52:44.128Z,95419
2022-12-06T13:53:52.790Z,95416
2022-12-06T13:55:02.461Z,95412
2022-12-06T13:56:13.145Z,95406
2022-12-06T13:57:22.829Z,95401
2022-12-06T13:58:32.529Z,95401
2022-12-06T13:59:42.187Z,95400
2022-12-06T14:00:50.908Z,95397
2022-12-06T14:02:00.718Z,95399
2022-12-06T14:03:09.289Z,95401
2022-12-06T14:04:18.874Z,95398
2022-12-06T14:05:27.500Z,95397
2022-12-06T14:06:36.189Z,95394
2022-12-06T14:07:44.928Z,95399
2022-12-06T14:08:52.565Z,95403
2022-12-06T14:10:01.417Z,95397
2022-12-06T14:11:10.897Z,95400
2022-12-06T14:12:20.603Z,95394
2022-12-06T14:13:29.347Z,95394
2022-12-06T14:14:39.120Z,95393
2022-12-06T14:15:46.764Z,95395
2022-12-06T14:16:55.512Z,95400
2022-12-06T14:18:09.612Z,95402
2022-12-06T14:19:13.754Z,95392
2022-12-06T14:20:23.437Z,95393
2022-12-06T14:21:31.100Z,95392
2022-12-06T14:22:40.777Z,95393
2022-12-06T14:23:50.470Z,95398
2022-12-06T14:24:58.145Z,95399
2022-12-06T14:26:06.821Z,95397
2022-12-06T14:27:15.486Z,95402
2022-12-06T14:28:25.197Z,95401
2022-12-06T14:29:34.939Z,95399
2022-12-06T14:30:43.759Z,95401
2022-12-06T14:31:52.333Z,95406
2022-12-06T14:33:02.018Z,95411
2022-12-06T14:34:09.671Z,95402
2022-12-06T14:35:18.360Z,95402
2022-12-06T14:36:27.035Z,95404
2022-12-06T14:37:35.765Z,95402
2022-12-06T14:38:45.438Z,95404
2022-12-06T14:39:53.123Z,95403
2022-12-06T14:41:02.761Z,95400
2022-12-06T14:42:12.462Z,95394
2022-12-06T14:43:21.145Z,95398
2022-12-06T14:44:30.840Z,95398
2022-12-06T14:45:39.553Z,95393
2022-12-06T14:46:48.341Z,95394
2022-12-06T14:47:57.894Z,95397
2022-12-06T14:49:05.779Z,95399